This is the latest recevied weather packets stored in our database for station/object EA3IK-7. If no packets are shown the sender has not sent any weather packets the latest 10 day(s).
| Time | Temp. | Humidity | Pressure | Rain* | Wind** | Luminosity | Snow |
|---|---|---|---|---|---|---|---|
| 1777565998 | 25.56° C | 56% | 1013.1 hPa | - | - | - | - |
| 1777562398 | 26.11° C | 56% | 1012.8 hPa | - | - | - | - |
| 1777560598 | 26.67° C | 54% | 1012.8 hPa | - | - | - | - |
| 1777558798 | 26.67° C | 55% | 1012.8 hPa | - | - | - | - |
| 1777556997 | 26.67° C | 54% | 1012.8 hPa | - | - | - | - |
| 1777555198 | 27.22° C | 50% | 1012.9 hPa | - | - | - | - |
| 1777555197 | 27.22° C | 50% | 1012.9 hPa | - | - | - | - |
| 1777553398 | 26.67° C | 51% | 1012.9 hPa | - | - | - | - |
| 1777551598 | 26.67° C | 56% | 1012.9 hPa | - | - | - | - |
| 1777551597 | 26.67° C | 56% | 1012.9 hPa | - | - | - | - |
| 1777549797 | 25.56° C | 59% | 1013.2 hPa | - | - | - | - |
| 1777547998 | 24.44° C | 62% | 1013.5 hPa | - | - | - | - |
| 1777547997 | 24.44° C | 62% | 1013.5 hPa | - | - | - | - |
| 1777546197 | 23.89° C | 62% | 1013.6 hPa | - | - | - | - |
| 1777544397 | 22.78° C | 65% | 1013.5 hPa | - | - | - | - |
| 1777542597 | 21.67° C | 69% | 1013.4 hPa | - | - | - | - |
| 1777540797 | 20.56° C | 74% | 1013.1 hPa | - | - | - | - |
| 1777538997 | 19.44° C | 77% | 1012.9 hPa | - | - | - | - |
| 1777537197 | 17.78° C | 79% | 1012.7 hPa | - | - | - | - |
| 1777535397 | 17.22° C | 82% | 1012.4 hPa | - | - | - | - |
| 1777533597 | 17.22° C | 83% | 1012.4 hPa | - | - | - | - |
| 1777531797 | 16.67° C | 87% | 1012.2 hPa | - | - | - | - |
| 1777529997 | 16.11° C | 87% | 1012.2 hPa | - | - | - | - |
| 1777528197 | 16.11° C | 88% | 1012.1 hPa | - | - | - | - |
| 1777526397 | 15.56° C | 88% | 1011.8 hPa | - | - | - | - |
* Rain since midnight (hover to see other rain measurements)
** Current wind speed in m/s (hover to see current wind gust speed)